This is the latest recevied weather packets stored in our database for station/object WZ9ZZZ-1. If no packets are shown the sender has not sent any weather packets the latest 1 day(s).
| Time | Temp. | Humidity | Pressure | Rain* | Wind** | Luminosity | Snow |
|---|---|---|---|---|---|---|---|
| 1836274559 | 27.22° C | 82% | 1019.2 hPa | 0 mm | 0 m/s | 0 W/m² | - |
| 1836274414 | 27.22° C | 82% | 1019.4 hPa | 0 mm | 0 m/s | 0 W/m² | - |
| 1836274258 | 27.22° C | 82% | 1019.4 hPa | 0 mm | 0 m/s | 0 W/m² | - |
| 1836274112 | 27.22° C | 82% | 1019.3 hPa | 0 mm | 0 m/s | 0 W/m² | - |
| 1836273958 | 27.22° C | 82% | 1019.4 hPa | 0 mm | 0 m/s | 0 W/m² | - |
| 1778054310 | 25° C | 93% | 1013 hPa | 0 mm | 0 m/s | 0 W/m² | - |
| 1778054007 | 25° C | 93% | 1012.9 hPa | 0 mm | 1.34 m/s, 267° | 0 W/m² | - |
| 1778053704 | 25° C | 93% | 1012.8 hPa | 0 mm | 0 m/s | 0 W/m² | - |
| 1778053400 | 25° C | 93% | 1013 hPa | 0 mm | 0.45 m/s, 126° | 0 W/m² | - |
| 1778053098 | 25° C | 92% | 1013.1 hPa | 0 mm | 1.34 m/s, 162° | 0 W/m² | - |
| 1778052796 | 25° C | 92% | 1013.1 hPa | 0 mm | 1.34 m/s, 195° | 0 W/m² | - |
| 1778052492 | 25° C | 92% | 1013.4 hPa | 0 mm | 0 m/s | 0 W/m² | - |
| 1778052190 | 25° C | 92% | 1013 hPa | 0 mm | 0.45 m/s, 135° | 0 W/m² | - |
| 1778051887 | 25° C | 92% | 1013.4 hPa | 0 mm | 1.79 m/s, 148° | 0 W/m² | - |
| 1778051585 | 25° C | 92% | 1013.2 hPa | 0 mm | 1.34 m/s, 203° | 0 W/m² | - |
| 1778051282 | 25° C | 92% | 1013.5 hPa | 0 mm | 1.79 m/s, 214° | 0 W/m² | - |
| 1778050979 | 25° C | 92% | 1013.5 hPa | 0 mm | 0.89 m/s, 90° | 0 W/m² | - |
| 1778050677 | 25° C | 92% | 1013.8 hPa | 0 mm | 0.89 m/s, 202° | 0 W/m² | - |
| 1778050374 | 25° C | 92% | 1013.5 hPa | 0 mm | 1.34 m/s, 272° | 0 W/m² | - |
| 1778050070 | 25° C | 92% | 1013.4 hPa | 0 mm | 1.34 m/s, 219° | 0 W/m² | - |
| 1778049766 | 25° C | 92% | 1013.4 hPa | 0 mm | 1.79 m/s, 238° | 0 W/m² | - |
| 1778049464 | 25° C | 92% | 1013.3 hPa | 0 mm | 0.89 m/s, 156° | 0 W/m² | - |
| 1778049161 | 25° C | 92% | 1013.4 hPa | 0 mm | 1.34 m/s, 241° | 0 W/m² | - |
| 1778048859 | 25° C | 91% | 1013.5 hPa | 0 mm | 0 m/s | 0 W/m² | - |
| 1778048556 | 25° C | 91% | 1013.2 hPa | 0 mm | 1.34 m/s, 249° | 0 W/m² | - |
* Rain latest hour (hover to see other rain measurements)
** Current wind speed in m/s (hover to see current wind gust speed)